Time;durP1;ratioP1;P1;durP2;ratioP2;P2;SDS_P1;SDS_P2;PMS_P1;PMS_P2;Temp;Humidity;BMP_temperature;BMP_pressure;BME280_temperature;BME280_humidity;BME280_pressure;Samples;Min_cycle;Max_cycle;Signal;HPM_P1;HPM_P2
2022/05/15 00:01:07;;;;;;;9.20;1.73;;;;;;;-145.52;100.00;57022.44;5071785;28;20081;-69
2022/05/15 00:03:33;;;;;;;4.63;1.45;;;;;;;-145.52;100.00;57022.44;5075799;28;20036;-70
2022/05/15 00:06:03;;;;;;;5.95;1.70;;;;;;;-145.52;100.00;57022.44;5049900;28;20079;-69
2022/05/15 00:08:31;;;;;;;3.80;1.13;;;;;;;-145.52;100.00;57022.44;5077564;28;20036;-69
2022/05/15 00:10:59;;;;;;;6.68;1.30;;;;;;;-145.52;100.00;57022.44;5078904;28;20464;-69
2022/05/15 00:13:26;;;;;;;3.17;1.10;;;;;;;-145.52;100.00;57022.44;5079446;28;20392;-69
2022/05/15 00:15:52;;;;;;;5.43;1.90;;;;;;;-145.52;100.00;57022.44;5076050;28;20531;-70
2022/05/15 00:18:20;;;;;;;4.68;1.50;;;;;;;-145.52;100.00;57022.44;5074403;28;20116;-69
2022/05/15 00:20:45;;;;;;;7.53;1.80;;;;;;;-145.52;100.00;57022.44;5077969;28;20028;-67
2022/05/15 00:23:13;;;;;;;3.97;1.63;;;;;;;-145.52;100.00;57022.44;5080609;28;20043;-70
2022/05/15 00:25:39;;;;;;;5.25;1.58;;;;;;;-145.52;100.00;57022.44;5055471;28;20060;-69
2022/05/15 00:28:06;;;;;;;6.93;1.58;;;;;;;-145.52;100.00;57022.44;5078173;28;20105;-69
2022/05/15 00:30:32;;;;;;;7.20;2.13;;;;;;;-145.52;100.00;57022.44;5070864;28;20043;-69
2022/05/15 00:33:00;;;;;;;5.18;1.73;;;;;;;-145.52;100.00;57022.44;5073450;28;20032;-68
2022/05/15 00:35:25;;;;;;;5.95;1.83;;;;;;;-145.52;100.00;57022.44;5057511;28;20501;-69
2022/05/15 00:37:51;;;;;;;4.68;1.35;;;;;;;-145.52;100.00;57022.44;5072822;28;20111;-69
2022/05/15 00:40:20;;;;;;;7.05;1.50;;;;;;;-145.52;100.00;57022.44;5076632;28;20066;-68
2022/05/15 00:42:46;;;;;;;8.95;1.80;;;;;;;-145.52;100.00;57022.44;5072840;28;20032;-68
2022/05/15 00:45:13;;;;;;;6.50;2.15;;;;;;;-145.52;100.00;57022.44;5073402;28;20111;-68
2022/05/15 00:47:39;;;;;;;6.30;1.70;;;;;;;-145.52;100.00;57022.44;5079354;28;20032;-69
2022/05/15 00:50:08;;;;;;;6.03;1.50;;;;;;;-145.52;100.00;57022.44;5057722;28;20074;-68
2022/05/15 00:52:38;;;;;;;4.90;1.40;;;;;;;-145.52;100.00;57022.44;5072844;28;20024;-69
2022/05/15 00:55:12;;;;;;;6.47;1.38;;;;;;;-145.52;100.00;57022.44;5076055;28;20454;-68
2022/05/15 00:57:47;;;;;;;10.50;2.05;;;;;;;-145.52;100.00;57022.44;5074835;28;20037;-68
2022/05/15 01:00:26;;;;;;;5.65;1.75;;;;;;;-145.52;100.00;57022.44;5070622;28;20046;-68
2022/05/15 01:03:00;;;;;;;3.42;1.30;;;;;;;-145.52;100.00;57022.44;5070578;28;20032;-67
2022/05/15 01:05:25;;;;;;;8.93;1.70;;;;;;;-145.52;100.00;57022.44;5071722;28;20047;-67
2022/05/15 01:07:51;;;;;;;7.60;1.67;;;;;;;-145.52;100.00;57022.44;5079050;28;20047;-68
2022/05/15 01:10:17;;;;;;;4.78;1.55;;;;;;;-145.52;100.00;57022.44;5053555;28;20056;-67
2022/05/15 01:12:43;;;;;;;6.93;1.50;;;;;;;-145.52;100.00;57022.44;5079786;28;20041;-68
2022/05/15 01:15:14;;;;;;;7.22;1.60;;;;;;;-145.52;100.00;57022.44;5072289;28;20111;-68
2022/05/15 01:17:39;;;;;;;7.25;1.55;;;;;;;-145.52;100.00;57022.44;5075189;28;20032;-69
2022/05/15 01:20:14;;;;;;;5.03;1.42;;;;;;;-145.52;100.00;57022.44;5070402;28;20028;-68
2022/05/15 01:22:39;;;;;;;7.55;1.60;;;;;;;-145.52;100.00;57022.44;5063802;28;20040;-69
2022/05/15 01:25:14;;;;;;;6.65;1.70;;;;;;;-145.52;100.00;57022.44;5069969;28;20040;-68
2022/05/15 01:27:42;;;;;;;5.10;1.40;;;;;;;-145.52;100.00;57022.44;5079882;28;20032;-69
2022/05/15 01:30:08;;;;;;;6.45;1.55;;;;;;;-145.52;100.00;57022.44;5081488;28;20040;-68
2022/05/15 01:32:33;;;;;;;7.13;1.40;;;;;;;-145.52;100.00;57022.44;5073263;28;20738;-69
2022/05/15 01:34:59;;;;;;;6.35;1.42;;;;;;;-145.52;100.00;57022.44;5074278;28;20123;-69
2022/05/15 01:37:24;;;;;;;4.70;1.42;;;;;;;-145.52;100.00;57022.44;5089804;28;20036;-68
2022/05/15 01:39:50;;;;;;;3.72;1.42;;;;;;;-145.52;100.00;57022.44;5070491;28;20037;-68
2022/05/15 01:42:15;;;;;;;5.47;1.50;;;;;;;-145.52;100.00;57022.44;5072423;28;20068;-68
2022/05/15 01:44:42;;;;;;;4.82;1.60;;;;;;;-145.52;100.00;57022.44;5073593;28;20111;-68
2022/05/15 01:47:07;;;;;;;3.28;0.90;;;;;;;-145.52;100.00;57022.44;5084865;28;20050;-69
2022/05/15 01:49:33;;;;;;;5.72;1.52;;;;;;;-145.52;100.00;57022.44;5082307;28;20040;-70
2022/05/15 01:51:59;;;;;;;6.32;1.60;;;;;;;-145.52;100.00;57022.44;5085648;28;20039;-69
2022/05/15 01:54:24;;;;;;;7.80;1.50;;;;;;;-145.52;100.00;57022.44;5071641;28;20039;-68
2022/05/15 01:56:50;;;;;;;6.05;1.30;;;;;;;-145.52;100.00;57022.44;5074125;28;20119;-68
2022/05/15 01:59:17;;;;;;;6.07;1.35;;;;;;;-145.52;100.00;57022.44;5093789;28;20486;-69
2022/05/15 02:01:42;;;;;;;4.13;1.45;;;;;;;-145.52;100.00;57022.44;5082225;28;20032;-68
2022/05/15 02:04:08;;;;;;;4.22;1.08;;;;;;;-145.52;100.00;57022.44;5074229;28;20035;-68
2022/05/15 02:06:35;;;;;;;2.90;1.25;;;;;;;-145.52;100.00;57022.44;5080490;28;20058;-69
2022/05/15 02:09:00;;;;;;;6.20;1.52;;;;;;;-145.52;100.00;57022.44;5090975;28;20028;-69
2022/05/15 02:11:26;;;;;;;5.38;1.50;;;;;;;-145.52;100.00;57022.44;5091284;28;20043;-69
2022/05/15 02:13:52;;;;;;;6.05;1.30;;;;;;;-145.52;100.00;57022.44;5084216;28;20475;-68
2022/05/15 02:16:18;;;;;;;5.47;1.80;;;;;;;-145.52;100.00;57022.44;5074795;28;20028;-69
2022/05/15 02:18:44;;;;;;;7.07;1.67;;;;;;;-145.52;100.00;57022.44;5087297;28;20528;-69
2022/05/15 02:21:09;;;;;;;5.15;1.60;;;;;;;-145.52;100.00;57022.44;5089081;28;20075;-69
2022/05/15 02:23:35;;;;;;;6.25;1.73;;;;;;;-145.52;100.00;57022.44;5096183;28;20028;-68
2022/05/15 02:26:01;;;;;;;4.15;1.10;;;;;;;-145.52;100.00;57022.44;5041205;28;20464;-68
2022/05/15 02:28:27;;;;;;;4.38;1.20;;;;;;;-145.52;100.00;57022.44;5094758;28;20081;-68
2022/05/15 02:30:52;;;;;;;5.20;1.27;;;;;;;-145.52;100.00;57022.44;5075357;28;20107;-68
2022/05/15 02:33:18;;;;;;;6.20;1.50;;;;;;;-145.52;100.00;57022.44;5082050;28;20050;-69
2022/05/15 02:35:44;;;;;;;5.43;1.30;;;;;;;-145.52;100.00;57022.44;5084078;28;20472;-70
2022/05/15 02:38:09;;;;;;;4.13;1.38;;;;;;;-145.52;100.00;57022.44;5095759;28;20036;-69
2022/05/15 02:40:35;;;;;;;7.60;1.88;;;;;;;-145.52;100.00;57022.44;5097956;28;20047;-69
2022/05/15 02:43:01;;;;;;;5.82;1.30;;;;;;;-145.52;100.00;57022.44;5087273;28;20525;-69
2022/05/15 02:45:26;;;;;;;4.68;1.25;;;;;;;-145.52;100.00;57022.44;5078503;28;20036;-69
2022/05/15 02:47:53;;;;;;;7.43;1.52;;;;;;;-145.52;100.00;57022.44;5076359;28;20531;-69
2022/05/15 02:53:03;;;;;;;5.70;1.35;;;;;;;-145.52;100.00;57022.44;5059565;28;20496;-70
2022/05/15 02:55:29;;;;;;;6.55;1.65;;;;;;;-145.52;100.00;57022.44;5077145;28;20036;-69
2022/05/15 02:57:55;;;;;;;6.22;1.70;;;;;;;-145.52;100.00;57022.44;5098351;28;20077;-69
2022/05/15 03:00:24;;;;;;;6.60;1.60;;;;;;;-145.52;100.00;57022.44;5096893;28;20028;-68
2022/05/15 03:02:50;;;;;;;6.07;1.30;;;;;;;-145.52;100.00;57022.44;5098190;28;20032;-69
2022/05/15 03:05:17;;;;;;;6.68;1.50;;;;;;;-145.52;100.00;57022.44;5086510;28;20048;-68
2022/05/15 03:07:43;;;;;;;4.50;1.33;;;;;;;-145.52;100.00;57022.44;5091530;28;20055;-70
2022/05/15 03:10:11;;;;;;;3.30;1.27;;;;;;;-145.52;100.00;57022.44;5098913;28;20032;-69
2022/05/15 03:12:36;;;;;;;5.85;1.27;;;;;;;-145.52;100.00;57022.44;5096686;28;20036;-68
2022/05/15 03:15:02;;;;;;;4.63;1.17;;;;;;;-145.52;100.00;57022.44;5099444;28;20360;-68
2022/05/15 03:17:29;;;;;;;9.13;1.30;;;;;;;-145.52;100.00;57022.44;5094939;28;20447;-69
2022/05/15 03:19:54;;;;;;;5.38;1.17;;;;;;;-145.52;100.00;57022.44;5078047;28;20036;-68
2022/05/15 03:22:19;;;;;;;5.88;1.40;;;;;;;-145.52;100.00;57022.44;5095831;28;20047;-68
2022/05/15 03:24:45;;;;;;;6.93;1.45;;;;;;;-145.52;100.00;57022.44;5085052;28;20036;-68
2022/05/15 03:27:10;;;;;;;5.90;1.40;;;;;;;-145.52;100.00;57022.44;5078468;28;20032;-69
2022/05/15 03:29:36;;;;;;;4.20;1.40;;;;;;;-145.52;100.00;57022.44;5075954;28;20036;-70
2022/05/15 03:32:01;;;;;;;4.85;1.38;;;;;;;-145.52;100.00;57022.44;5073119;28;20043;-68
2022/05/15 03:34:27;;;;;;;7.47;1.30;;;;;;;-145.52;100.00;57022.44;5092443;28;20032;-69
2022/05/15 03:36:53;;;;;;;3.60;1.30;;;;;;;-145.52;100.00;57022.44;5096010;28;20372;-69
2022/05/15 03:39:20;;;;;;;5.63;1.48;;;;;;;-145.52;100.00;57022.44;5096438;28;20046;-69
2022/05/15 03:41:47;;;;;;;4.05;1.30;;;;;;;-145.52;100.00;57022.44;5088361;28;20028;-69
2022/05/15 03:44:13;;;;;;;5.60;1.20;;;;;;;-145.52;100.00;57022.44;5075934;28;20032;-69
2022/05/15 03:46:39;;;;;;;4.43;1.60;;;;;;;-145.52;100.00;57022.44;5072114;28;20136;-66
2022/05/15 03:49:05;;;;;;;6.95;1.90;;;;;;;-145.52;100.00;57022.44;5066779;28;20040;-67
2022/05/15 03:51:31;;;;;;;5.40;1.25;;;;;;;-145.52;100.00;57022.44;5095752;28;20032;-69
2022/05/15 03:53:56;;;;;;;7.80;1.30;;;;;;;-145.52;100.00;57022.44;5091386;28;20032;-68
2022/05/15 03:56:49;;;;;;;11.27;1.55;;;;;;;-145.52;100.00;57022.44;5094487;28;20040;-69
2022/05/15 03:59:10;;;;;;;6.43;1.30;;;;;;;-145.52;100.00;57022.44;5095584;28;20065;-68
2022/05/15 04:01:36;;;;;;;7.47;1.70;;;;;;;-145.52;100.00;57022.44;5073879;28;20102;-67
2022/05/15 04:04:02;;;;;;;6.22;1.20;;;;;;;-145.52;100.00;57022.44;5073593;28;20044;-69
2022/05/15 04:06:28;;;;;;;5.38;1.35;;;;;;;-145.52;100.00;57022.44;5081046;28;20044;-69
2022/05/15 04:08:54;;;;;;;5.50;1.40;;;;;;;-145.52;100.00;57022.44;5094761;28;20039;-69
2022/05/15 04:11:19;;;;;;;4.60;1.33;;;;;;;-145.52;100.00;57022.44;5092913;28;20055;-68
2022/05/15 04:13:44;;;;;;;6.05;1.65;;;;;;;-145.52;100.00;57022.44;5094174;28;20073;-68
2022/05/15 04:16:11;;;;;;;4.25;1.27;;;;;;;-145.52;100.00;57022.44;5064724;28;20056;-68
2022/05/15 04:18:36;;;;;;;5.60;1.85;;;;;;;-145.52;100.00;57022.44;5067018;28;20044;-69
2022/05/15 04:21:02;;;;;;;8.15;1.60;;;;;;;-145.52;100.00;57022.44;5041936;28;20044;-68
2022/05/15 04:23:29;;;;;;;6.88;1.52;;;;;;;-145.52;100.00;57022.44;5053608;28;20038;-69
2022/05/15 04:25:54;;;;;;;9.77;1.67;;;;;;;-145.52;100.00;57022.44;5075054;28;20040;-69
2022/05/15 04:28:20;;;;;;;5.78;1.52;;;;;;;-145.52;100.00;57022.44;5074920;28;20082;-69
2022/05/15 04:30:45;;;;;;;5.07;1.48;;;;;;;-145.52;100.00;57022.44;5073552;28;20123;-69
2022/05/15 04:33:11;;;;;;;4.70;1.25;;;;;;;-145.52;100.00;57022.44;5077884;28;20056;-69
2022/05/15 04:35:36;;;;;;;8.98;1.42;;;;;;;-145.52;100.00;57022.44;5093663;28;20467;-69
2022/05/15 04:38:01;;;;;;;3.80;1.30;;;;;;;-145.52;100.00;57022.44;5076482;28;20043;-70
2022/05/15 04:40:27;;;;;;;4.13;1.58;;;;;;;-145.52;100.00;57022.44;5092116;28;20036;-69
2022/05/15 04:42:52;;;;;;;7.40;1.80;;;;;;;-145.52;100.00;57022.44;5082834;28;20113;-69
2022/05/15 04:45:18;;;;;;;6.55;1.80;;;;;;;-145.52;100.00;57022.44;5093111;28;20028;-70
2022/05/15 04:47:47;;;;;;;7.85;1.85;;;;;;;-145.52;100.00;57022.44;5093356;28;20027;-69
2022/05/15 04:50:14;;;;;;;7.30;2.00;;;;;;;-145.52;100.00;57022.44;5094640;28;20036;-69
2022/05/15 04:52:40;;;;;;;6.18;1.52;;;;;;;-145.52;100.00;57022.44;5090350;28;20437;-69
2022/05/15 04:55:06;;;;;;;4.57;1.70;;;;;;;-145.52;100.00;57022.44;5090625;28;20159;-69
2022/05/15 04:57:31;;;;;;;6.15;1.92;;;;;;;-145.52;100.00;57022.44;5073856;28;20039;-69
2022/05/15 04:59:57;;;;;;;9.20;1.67;;;;;;;-145.52;100.00;57022.44;5082543;28;20054;-68
2022/05/15 05:02:22;;;;;;;7.10;2.00;;;;;;;-145.52;100.00;57022.44;5090720;28;20032;-68
2022/05/15 05:04:48;;;;;;;7.65;1.90;;;;;;;-145.52;100.00;57022.44;5071282;28;20043;-69
2022/05/15 05:07:13;;;;;;;6.03;2.00;;;;;;;-145.52;100.00;57022.44;5076704;28;20056;-69
2022/05/15 05:09:38;;;;;;;8.93;2.35;;;;;;;-145.52;100.00;57022.44;5066361;28;20131;-68
2022/05/15 05:12:04;;;;;;;8.52;2.03;;;;;;;-145.52;100.00;57022.44;5068496;28;20047;-69
2022/05/15 05:14:30;;;;;;;6.88;1.92;;;;;;;-145.52;100.00;57022.44;5073536;28;20395;-69
2022/05/15 05:16:55;;;;;;;9.73;2.03;;;;;;;-145.52;100.00;57022.44;5072600;28;20032;-68
2022/05/15 05:19:21;;;;;;;11.05;2.20;;;;;;;-145.52;100.00;57022.44;5072782;28;20111;-69
2022/05/15 05:21:46;;;;;;;11.90;2.50;;;;;;;-145.52;100.00;57022.44;5070462;28;20047;-68
2022/05/15 05:24:13;;;;;;;8.02;2.38;;;;;;;-145.52;100.00;57022.44;5078070;28;20059;-69
2022/05/15 05:26:39;;;;;;;6.50;1.90;;;;;;;-145.52;100.00;57022.44;5092552;28;20476;-68
2022/05/15 05:29:05;;;;;;;7.72;1.98;;;;;;;-145.52;100.00;57022.44;5082278;28;20047;-68
2022/05/15 05:31:31;;;;;;;7.80;1.73;;;;;;;-145.52;100.00;57022.44;5092500;28;20032;-67
2022/05/15 05:33:57;;;;;;;6.03;1.60;;;;;;;-145.52;100.00;57022.44;5083489;28;20035;-68
2022/05/15 05:36:24;;;;;;;8.05;1.88;;;;;;;-145.52;100.00;57022.44;5077089;28;20544;-68
2022/05/15 05:38:49;;;;;;;7.15;2.03;;;;;;;-145.52;100.00;57022.44;5092636;28;20498;-69
2022/05/15 05:41:15;;;;;;;9.45;2.25;;;;;;;-145.52;100.00;57022.44;5092545;28;20111;-69
2022/05/15 05:43:40;;;;;;;12.43;2.25;;;;;;;-145.52;100.00;57022.44;5093760;28;20040;-69
2022/05/15 05:46:06;;;;;;;7.28;2.03;;;;;;;-145.52;100.00;57022.44;5093922;28;20039;-68
2022/05/15 05:48:32;;;;;;;10.65;2.50;;;;;;;-145.52;100.00;57022.44;5071586;28;20037;-68
2022/05/15 05:50:57;;;;;;;13.48;3.03;;;;;;;-145.52;100.00;57022.44;5070772;28;20476;-69
2022/05/15 05:53:23;;;;;;;11.32;2.75;;;;;;;-145.52;100.00;57022.44;5072452;28;20029;-69
2022/05/15 05:55:48;;;;;;;7.45;2.15;;;;;;;-145.52;100.00;57022.44;5071321;28;20070;-68
2022/05/15 05:58:14;;;;;;;5.93;2.28;;;;;;;-145.52;100.00;57022.44;5071053;28;20040;-69
2022/05/15 06:00:39;;;;;;;8.45;2.33;;;;;;;-145.52;100.00;57022.44;5073528;28;20040;-68
2022/05/15 06:05:50;;;;;;;9.30;1.90;;;;;;;-145.52;100.00;57022.44;5064332;28;20400;-69
2022/05/15 06:08:18;;;;;;;7.95;1.73;;;;;;;-145.52;100.00;57022.44;5082839;28;20063;-69
2022/05/15 06:10:44;;;;;;;6.60;1.60;;;;;;;-145.52;100.00;57022.44;5073664;28;20052;-68
2022/05/15 06:13:10;;;;;;;5.15;1.50;;;;;;;-145.52;100.00;57022.44;5072735;28;20037;-70
2022/05/15 06:15:36;;;;;;;6.65;1.88;;;;;;;-145.52;100.00;57022.44;5067110;28;20478;-69
2022/05/15 06:18:04;;;;;;;10.02;2.30;;;;;;;-145.52;100.00;57022.44;5073831;28;20032;-69
2022/05/15 06:20:29;;;;;;;11.32;2.28;;;;;;;-145.52;100.00;57022.44;5082425;28;20028;-69
2022/05/15 06:22:56;;;;;;;6.38;2.13;;;;;;;-145.52;100.00;57022.44;5057334;28;20055;-67
2022/05/15 06:25:21;;;;;;;8.07;2.20;;;;;;;-145.52;100.00;57022.44;5072709;28;20036;-69
2022/05/15 06:27:47;;;;;;;7.80;1.95;;;;;;;-145.52;100.00;57022.44;5070706;28;20107;-68
2022/05/15 06:30:14;;;;;;;8.15;1.95;;;;;;;-145.52;100.00;57022.44;5070271;28;20041;-69
2022/05/15 06:32:39;;;;;;;7.00;2.03;;;;;;;-145.52;100.00;57022.44;5074595;28;20036;-69
2022/05/15 06:35:06;;;;;;;5.47;1.70;;;;;;;-145.52;100.00;57022.44;5070198;28;20044;-69
2022/05/15 06:37:32;;;;;;;5.60;1.77;;;;;;;-145.52;100.00;57022.44;5052981;28;20452;-68
2022/05/15 06:39:57;;;;;;;6.47;2.03;;;;;;;-145.52;100.00;57022.44;5072389;28;20055;-68
2022/05/15 06:42:23;;;;;;;9.95;2.15;;;;;;;-145.52;100.00;57022.44;5072911;28;20056;-69
2022/05/15 06:44:49;;;;;;;9.13;1.80;;;;;;;-145.52;100.00;57022.44;5072741;28;20033;-69
2022/05/15 06:47:15;;;;;;;9.45;1.80;;;;;;;-145.52;100.00;57022.44;5072755;28;20036;-68
2022/05/15 06:49:40;;;;;;;9.27;2.10;;;;;;;-145.52;100.00;57022.44;5071597;28;20063;-69
2022/05/15 06:52:06;;;;;;;7.90;1.60;;;;;;;-145.52;100.00;57022.44;5077335;28;20028;-68
2022/05/15 06:54:31;;;;;;;6.95;1.52;;;;;;;-145.52;100.00;57022.44;5093013;28;20047;-70
2022/05/15 06:59:41;;;;;;;7.43;1.85;;;;;;;-145.52;100.00;57022.44;5057786;28;20035;-69
2022/05/15 07:02:06;;;;;;;6.68;1.70;;;;;;;-145.52;100.00;57022.44;5072647;28;20032;-70
2022/05/15 07:04:32;;;;;;;5.57;1.85;;;;;;;-145.52;100.00;57022.44;5074179;28;20119;-71
2022/05/15 07:06:57;;;;;;;12.82;1.90;;;;;;;-145.52;100.00;57022.44;5058006;28;20404;-69
2022/05/15 07:09:23;;;;;;;5.65;1.38;;;;;;;-145.52;100.00;57022.44;5075372;28;20045;-69
2022/05/15 07:11:48;;;;;;;11.23;2.25;;;;;;;-145.52;100.00;57022.44;5075829;28;20116;-67
2022/05/15 07:14:14;;;;;;;8.27;1.75;;;;;;;-145.52;100.00;57022.44;5032603;28;20250;-71
2022/05/15 07:16:40;;;;;;;8.65;1.80;;;;;;;-145.52;100.00;57022.44;5076288;28;20037;-70
2022/05/15 07:19:06;;;;;;;7.03;1.65;;;;;;;-145.52;100.00;57022.44;5074501;28;20029;-70
2022/05/15 07:21:31;;;;;;;4.80;1.60;;;;;;;-145.52;100.00;57022.44;5072140;28;20127;-69
2022/05/15 07:23:57;;;;;;;3.75;1.42;;;;;;;-145.52;100.00;57022.44;5057224;28;20892;-69
2022/05/15 07:26:22;;;;;;;11.32;2.08;;;;;;;-145.52;100.00;57022.44;5075917;28;20116;-70
2022/05/15 07:28:51;;;;;;;5.53;1.45;;;;;;;-145.52;100.00;57022.44;5075437;28;20033;-69
2022/05/15 07:31:18;;;;;;;5.75;1.92;;;;;;;-145.52;100.00;57022.44;5057197;28;20396;-68
2022/05/15 07:33:44;;;;;;;5.95;1.50;;;;;;;-145.52;100.00;57022.44;5071463;28;20047;-70
2022/05/15 07:36:09;;;;;;;7.20;1.70;;;;;;;-145.52;100.00;57022.44;5094596;28;20024;-69
2022/05/15 07:38:35;;;;;;;6.18;1.40;;;;;;;-145.52;100.00;57022.44;5073056;28;20116;-70
2022/05/15 07:41:00;;;;;;;7.88;1.30;;;;;;;-145.52;100.00;57022.44;5072040;28;20499;-70
2022/05/15 07:43:26;;;;;;;6.68;1.67;;;;;;;-145.52;100.00;57022.44;5052100;28;20040;-69
2022/05/15 07:45:51;;;;;;;8.55;2.03;;;;;;;-145.52;100.00;57022.44;5073105;28;20028;-68
2022/05/15 07:48:17;;;;;;;4.60;1.35;;;;;;;-145.52;100.00;57022.44;5074046;28;20089;-69
2022/05/15 07:50:42;;;;;;;6.18;1.70;;;;;;;-145.52;100.00;57022.44;5071353;28;20044;-70
2022/05/15 07:53:08;;;;;;;6.50;1.50;;;;;;;-145.52;100.00;57022.44;5073463;28;20036;-69
2022/05/15 07:55:34;;;;;;;5.00;1.27;;;;;;;-145.52;100.00;57022.44;5072276;28;20032;-70
2022/05/15 07:58:00;;;;;;;6.82;1.55;;;;;;;-145.52;100.00;57022.44;5075292;28;20048;-69
2022/05/15 08:00:26;;;;;;;8.15;1.60;;;;;;;-145.52;100.00;57022.44;5053640;28;20032;-69
2022/05/15 08:03:01;;;;;;;5.10;1.52;;;;;;;-145.52;100.00;57022.44;5073565;28;20113;-70
2022/05/15 08:08:11;;;;;;;4.65;1.00;;;;;;;-145.52;100.00;57022.44;5073323;28;20066;-68
2022/05/15 08:10:40;;;;;;;5.25;1.35;;;;;;;-145.52;100.00;57022.44;5074214;28;20040;-70
2022/05/15 08:13:06;;;;;;;3.75;1.02;;;;;;;-145.52;100.00;57022.44;5070317;28;20040;-68
2022/05/15 08:15:33;;;;;;;3.67;1.00;;;;;;;-145.52;100.00;57022.44;5071266;28;20025;-71
2022/05/15 08:23:33;;;;;;;4.10;0.85;;;;;;;-145.52;100.00;57022.44;5072474;28;20502;-72
2022/05/15 08:23:36;;;;;;;5.20;1.20;;;;;;;-145.52;100.00;57022.44;5054047;28;20043;-71
2022/05/15 08:26:05;;;;;;;6.80;1.27;;;;;;;-145.52;100.00;57022.44;5071196;28;20517;-70
2022/05/15 08:28:32;;;;;;;5.78;1.00;;;;;;;-145.52;100.00;57022.44;5073367;28;20040;-70
2022/05/15 08:30:57;;;;;;;6.47;1.13;;;;;;;-145.52;100.00;57022.44;5054229;28;20033;-69
2022/05/15 08:33:22;;;;;;;4.93;0.93;;;;;;;-145.52;100.00;57022.44;5071717;28;20142;-69
2022/05/15 08:35:48;;;;;;;5.82;0.90;;;;;;;-145.52;100.00;57022.44;5036430;28;20072;-70
2022/05/15 08:38:15;;;;;;;3.40;0.70;;;;;;;-145.52;100.00;57022.44;5039100;28;20037;-70
2022/05/15 08:40:57;;;;;;;3.63;0.80;;;;;;;-145.52;100.00;57022.44;5072275;28;20036;-69
2022/05/15 08:43:33;;;;;;;6.07;1.10;;;;;;;-145.52;100.00;57022.44;5066052;28;20036;-70
2022/05/15 08:46:04;;;;;;;4.97;1.10;;;;;;;-145.52;100.00;57022.44;5071066;28;20032;-70
2022/05/15 08:48:34;;;;;;;4.45;0.93;;;;;;;-145.52;100.00;57022.44;5067934;28;20174;-69
2022/05/15 08:51:02;;;;;;;6.28;0.98;;;;;;;-145.52;100.00;57022.44;5060779;28;20033;-70
2022/05/15 08:53:37;;;;;;;3.70;0.90;;;;;;;-145.52;100.00;57022.44;5068642;28;20031;-69
2022/05/15 08:56:09;;;;;;;3.53;0.70;;;;;;;-145.52;100.00;57022.44;5071159;28;20036;-70
2022/05/15 08:58:37;;;;;;;5.90;0.93;;;;;;;-145.52;100.00;57022.44;5069435;28;20033;-68
2022/05/15 09:01:08;;;;;;;4.78;1.08;;;;;;;-145.52;100.00;57022.44;5070542;28;20060;-70
2022/05/15 09:03:37;;;;;;;5.05;0.95;;;;;;;-145.52;100.00;57022.44;5069145;28;20037;-68
2022/05/15 09:06:21;;;;;;;2.75;0.90;;;;;;;-145.52;100.00;57022.44;5071095;28;20486;-69
2022/05/15 09:09:10;;;;;;;1.92;0.60;;;;;;;-145.52;100.00;57022.44;5069685;28;20097;-68
2022/05/15 09:12:01;;;;;;;3.05;0.60;;;;;;;-145.52;100.00;57022.44;5066985;28;20036;-69
2022/05/15 09:14:48;;;;;;;3.42;0.90;;;;;;;-145.52;100.00;57022.44;5062629;28;20060;-69
2022/05/15 09:17:44;;;;;;;3.70;0.60;;;;;;;-145.52;100.00;57022.44;5070527;28;20434;-68
2022/05/15 09:20:31;;;;;;;4.22;0.73;;;;;;;-145.52;100.00;57022.44;5071256;28;20051;-69
2022/05/15 09:23:14;;;;;;;5.07;1.00;;;;;;;-145.52;100.00;57022.44;5071652;28;20127;-70
2022/05/15 09:25:39;;;;;;;6.50;1.00;;;;;;;-145.52;100.00;57022.44;5072148;28;20032;-70
2022/05/15 09:28:11;;;;;;;2.70;0.80;;;;;;;-145.52;100.00;57022.44;5071610;28;20043;-69
2022/05/15 09:30:48;;;;;;;3.63;0.90;;;;;;;-145.52;100.00;57022.44;5070068;28;20035;-68
2022/05/15 09:33:23;;;;;;;5.45;0.73;;;;;;;-145.52;100.00;57022.44;5071287;28;20032;-67
2022/05/15 09:35:48;;;;;;;3.17;0.68;;;;;;;-145.52;100.00;57022.44;5068768;28;20097;-70
2022/05/15 09:38:38;;;;;;;5.32;0.80;;;;;;;-145.52;100.00;57022.44;5069275;28;20806;-70
2022/05/15 09:43:56;;;;;;;2.67;0.70;;;;;;;-145.52;100.00;57022.44;5071306;28;20081;-69
2022/05/15 09:46:25;;;;;;;4.15;0.80;;;;;;;-145.52;100.00;57022.44;5085957;28;20032;-70
2022/05/15 09:49:03;;;;;;;3.50;0.80;;;;;;;-145.52;100.00;57022.44;5070392;28;20024;-69
2022/05/15 09:51:47;;;;;;;3.67;0.82;;;;;;;-145.52;100.00;57022.44;5066528;28;20476;-70
2022/05/15 09:54:34;;;;;;;2.85;0.50;;;;;;;-145.52;100.00;57022.44;5070682;28;20033;-69
2022/05/15 09:57:22;;;;;;;4.38;0.70;;;;;;;-145.52;100.00;57022.44;5070818;28;20111;-69
2022/05/15 09:59:57;;;;;;;1.90;0.65;;;;;;;-145.52;100.00;57022.44;5072589;28;20036;-70
2022/05/15 10:02:38;;;;;;;4.03;0.75;;;;;;;-145.52;100.00;57022.44;5062782;28;20028;-70
2022/05/15 10:05:10;;;;;;;4.38;0.57;;;;;;;-145.52;100.00;57022.44;5071396;28;20043;-69
2022/05/15 10:07:44;;;;;;;3.20;0.45;;;;;;;-145.52;100.00;57022.44;5072525;28;20124;-69
2022/05/15 10:10:21;;;;;;;2.58;0.63;;;;;;;-145.52;100.00;57022.44;5070714;28;20040;-71
2022/05/15 10:12:52;;;;;;;1.05;0.40;;;;;;;-145.52;100.00;57022.44;5071951;28;20037;-67
2022/05/15 10:15:19;;;;;;;2.80;0.60;;;;;;;-145.52;100.00;57022.44;5052384;28;20115;-70
2022/05/15 10:17:54;;;;;;;4.03;0.68;;;;;;;-145.52;100.00;57022.44;5058255;28;20032;-69
2022/05/15 10:20:31;;;;;;;1.75;0.43;;;;;;;-145.52;100.00;57022.44;5072246;28;20035;-69
2022/05/15 10:23:06;;;;;;;3.42;0.60;;;;;;;-145.52;100.00;57022.44;5072938;28;20059;-69
2022/05/15 10:25:56;;;;;;;2.70;0.70;;;;;;;-145.52;100.00;57022.44;5068963;28;20105;-69
2022/05/15 10:28:28;;;;;;;2.95;0.70;;;;;;;-145.52;100.00;57022.44;5062853;28;20035;-70
2022/05/15 10:31:27;;;;;;;2.25;0.57;;;;;;;-145.52;100.00;57022.44;5071244;28;20040;-68
2022/05/15 10:33:59;;;;;;;2.95;0.50;;;;;;;-145.52;100.00;57022.44;5075332;28;20075;-70
2022/05/15 10:36:26;;;;;;;1.70;0.60;;;;;;;-145.52;100.00;57022.44;5076685;28;20032;-70
2022/05/15 10:39:13;;;;;;;2.00;0.63;;;;;;;-145.52;100.00;57022.44;5074385;28;20036;-69
2022/05/15 10:41:57;;;;;;;3.15;0.63;;;;;;;-145.52;100.00;57022.44;5069071;28;20036;-71
2022/05/15 10:44:51;;;;;;;2.70;0.80;;;;;;;-145.52;100.00;57022.44;5074277;28;20456;-70
2022/05/15 10:47:26;;;;;;;1.83;0.60;;;;;;;-145.52;100.00;57022.44;5072375;28;20035;-69
2022/05/15 10:50:03;;;;;;;2.67;0.68;;;;;;;-145.52;100.00;57022.44;5075835;28;20119;-69
2022/05/15 10:52:56;;;;;;;1.73;0.50;;;;;;;-145.52;100.00;57022.44;5076469;28;20033;-72
2022/05/15 10:58:49;;;;;;;1.73;0.50;;;;;;;-145.52;100.00;57022.44;5078044;28;20055;-70
2022/05/15 11:01:26;;;;;;;1.88;0.60;;;;;;;-145.52;100.00;57022.44;5062279;28;20487;-71
2022/05/15 11:04:10;;;;;;;3.30;0.70;;;;;;;-145.52;100.00;57022.44;5075234;28;20047;-71
2022/05/15 11:06:54;;;;;;;3.50;0.50;;;;;;;-145.52;100.00;57022.44;5075798;28;20688;-69
2022/05/15 11:09:22;;;;;;;2.60;0.45;;;;;;;-145.52;100.00;57022.44;5076654;28;20024;-71
2022/05/15 11:12:06;;;;;;;4.25;1.13;;;;;;;-145.52;100.00;57022.44;5076602;28;20103;-71
2022/05/15 11:14:57;;;;;;;3.90;1.05;;;;;;;-145.52;100.00;57022.44;5076069;28;20028;-70
2022/05/15 11:17:34;;;;;;;4.85;1.20;;;;;;;-145.52;100.00;57022.44;5071787;28;20017;-72
2022/05/15 11:20:12;;;;;;;4.05;0.82;;;;;;;-145.52;100.00;57022.44;5076358;28;20055;-72
2022/05/15 11:23:19;;;;;;;2.55;0.60;;;;;;;-145.52;100.00;57022.44;5076261;28;20058;-70
2022/05/15 11:25:52;;;;;;;1.75;0.30;;;;;;;-145.52;100.00;57022.44;5074214;28;20358;-71
2022/05/15 11:28:41;;;;;;;3.33;0.60;;;;;;;-145.52;100.00;57022.44;5074837;28;20033;-71
2022/05/15 11:31:12;;;;;;;2.28;0.80;;;;;;;-145.52;100.00;57022.44;5076108;28;20484;-72
2022/05/15 11:33:43;;;;;;;2.65;0.70;;;;;;;-145.52;100.00;57022.44;5078523;28;20085;-71
2022/05/15 11:36:12;;;;;;;2.67;0.55;;;;;;;-145.52;100.00;57022.44;5086517;28;20029;-70
2022/05/15 11:39:03;;;;;;;0.93;0.38;;;;;;;-145.52;100.00;57022.44;5074623;28;20384;-71